Time;durP1;ratioP1;P1;durP2;ratioP2;P2;SDS_P1;SDS_P2;PMS_P1;PMS_P2;Temp;Humidity;BMP_temperature;BMP_pressure;BME280_temperature;BME280_humidity;BME280_pressure;Samples;Min_cycle;Max_cycle;Signal;HPM_P1;HPM_P2
2022/09/23 00:01:31;;;;;;;0.70;0.50;;;;;;;26.71;nan;99428.78;5062555;28;20048;-56
2022/09/23 00:03:58;;;;;;;0.70;0.57;;;;;;;26.70;nan;99424.41;5067584;28;20045;-56
2022/09/23 00:06:24;;;;;;;0.75;0.57;;;;;;;26.70;nan;99425.19;5063245;28;20980;-58
2022/09/23 00:08:50;;;;;;;0.45;0.43;;;;;;;26.70;nan;99428.00;5060716;28;20065;-58
2022/09/23 00:11:22;;;;;;;1.08;0.60;;;;;;;26.69;nan;99432.03;5054403;28;20096;-56
2022/09/23 00:13:50;;;;;;;0.60;0.50;;;;;;;26.71;nan;99431.59;5053425;28;20071;-56
2022/09/23 00:16:19;;;;;;;0.95;0.60;;;;;;;26.68;nan;99424.03;5050909;28;20059;-56
2022/09/23 00:18:44;;;;;;;0.80;0.60;;;;;;;26.68;nan;99427.63;5061221;28;20102;-58
2022/09/23 00:21:12;;;;;;;0.68;0.60;;;;;;;26.66;nan;99430.06;5063807;28;20060;-57
2022/09/23 00:23:39;;;;;;;0.82;0.57;;;;;;;26.65;nan;99424.84;5067768;28;20123;-56
2022/09/23 00:26:06;;;;;;;0.70;0.60;;;;;;;26.69;nan;99434.81;5061951;28;20067;-56
2022/09/23 00:28:33;;;;;;;0.70;0.60;;;;;;;26.69;nan;99434.81;5050449;28;20055;-55
2022/09/23 00:31:10;;;;;;;1.25;0.70;;;;;;;26.66;nan;99432.06;5063345;28;20037;-57
2022/09/23 00:33:36;;;;;;;0.60;0.50;;;;;;;26.65;nan;99439.69;5057168;28;20083;-58
2022/09/23 00:36:04;;;;;;;0.60;0.60;;;;;;;26.65;nan;99431.28;5050764;28;20084;-58
2022/09/23 00:38:30;;;;;;;0.70;0.50;;;;;;;26.65;nan;99434.06;5066823;28;20109;-58
2022/09/23 00:40:57;;;;;;;0.50;0.50;;;;;;;26.66;nan;99424.44;5039543;28;20421;-57
2022/09/23 00:43:48;;;;;;;0.88;0.60;;;;;;;26.65;nan;99436.88;5050171;28;20075;-57
2022/09/23 00:46:37;;;;;;;1.20;0.80;;;;;;;26.64;nan;99432.47;5060997;28;20086;-57
2022/09/23 00:49:23;;;;;;;0.88;0.60;;;;;;;26.64;nan;99426.06;5067461;28;20151;-58
2022/09/23 00:51:57;;;;;;;0.80;0.52;;;;;;;26.65;nan;99434.06;5066575;28;20113;-56
2022/09/23 00:54:29;;;;;;;0.80;0.60;;;;;;;26.65;nan;99428.47;5066311;28;20063;-57
2022/09/23 00:56:58;;;;;;;0.90;0.68;;;;;;;26.61;nan;99422.06;5051199;28;20041;-59
2022/09/23 00:59:24;;;;;;;1.10;0.70;;;;;;;26.65;nan;99433.25;5049176;28;20048;-57
2022/09/23 01:01:53;;;;;;;0.85;0.60;;;;;;;26.64;nan;99426.06;5055416;28;20041;-57
2022/09/23 01:04:24;;;;;;;0.65;0.50;;;;;;;26.65;nan;99419.22;5054289;28;20083;-58
2022/09/23 01:06:50;;;;;;;0.65;0.50;;;;;;;26.64;nan;99429.66;5059076;28;20044;-59
2022/09/23 01:09:16;;;;;;;0.63;0.40;;;;;;;26.64;nan;99426.06;5077429;28;20044;-59
2022/09/23 01:12:00;;;;;;;0.73;0.55;;;;;;;26.63;nan;99418.84;5074576;28;20056;-59
2022/09/23 01:14:41;;;;;;;0.47;0.45;;;;;;;26.61;nan;99422.88;5081080;28;20157;-57
2022/09/23 01:17:18;;;;;;;0.82;0.70;;;;;;;26.63;nan;99421.66;5089459;28;20052;-55
2022/09/23 01:20:03;;;;;;;0.98;0.70;;;;;;;26.61;nan;99414.47;5075437;28;20420;-58
2022/09/23 01:22:39;;;;;;;0.70;0.60;;;;;;;26.58;nan;99415.28;5068173;28;20044;-57
2022/09/23 01:25:05;;;;;;;0.52;0.50;;;;;;;26.61;nan;99422.06;5080748;28;20055;-59
2022/09/23 01:27:48;;;;;;;0.73;0.60;;;;;;;26.60;nan;99421.28;5062987;28;20131;-57
2022/09/23 01:30:47;;;;;;;0.47;0.43;;;;;;;26.59;nan;99419.69;5067639;28;20473;-57
2022/09/23 01:33:23;;;;;;;0.60;0.45;;;;;;;26.60;nan;99415.66;5085743;28;20051;-57
2022/09/23 01:36:00;;;;;;;0.63;0.57;;;;;;;26.60;nan;99420.50;5081782;28;20131;-56
2022/09/23 01:38:42;;;;;;;0.75;0.50;;;;;;;26.56;nan;99412.09;5076966;28;20048;-58
2022/09/23 01:41:08;;;;;;;0.80;0.63;;;;;;;26.58;nan;99412.50;5078146;28;20048;-57
2022/09/23 01:43:48;;;;;;;0.60;0.45;;;;;;;26.57;nan;99408.06;5067339;28;20041;-61
2022/09/23 01:46:24;;;;;;;0.90;0.50;;;;;;;26.58;nan;99414.50;5068834;28;20131;-57
2022/09/23 01:49:10;;;;;;;1.10;0.70;;;;;;;26.57;nan;99410.06;5065885;28;20404;-57
2022/09/23 01:51:40;;;;;;;0.43;0.40;;;;;;;26.59;nan;99407.69;5070670;28;20570;-58
2022/09/23 01:54:14;;;;;;;0.95;0.65;;;;;;;26.59;nan;99414.09;5069643;28;20097;-59
2022/09/23 01:57:01;;;;;;;0.88;0.50;;;;;;;26.57;nan;99410.88;5074092;28;20954;-59
2022/09/23 01:59:38;;;;;;;0.75;0.50;;;;;;;26.54;nan;99411.72;5086963;28;20044;-56
2022/09/23 02:02:13;;;;;;;0.45;0.40;;;;;;;26.57;nan;99410.88;5084932;28;20182;-58
2022/09/23 02:04:46;;;;;;;1.15;0.68;;;;;;;26.58;nan;99411.69;5063842;28;20055;-58
2022/09/23 02:07:27;;;;;;;0.68;0.50;;;;;;;26.58;nan;99414.50;5071975;28;20692;-58
2022/09/23 02:09:59;;;;;;;0.50;0.50;;;;;;;26.56;nan;99416.91;5088211;28;20082;-57
2022/09/23 02:12:28;;;;;;;0.50;0.50;;;;;;;26.57;nan;99421.28;5079015;28;20073;-57
2022/09/23 02:15:01;;;;;;;0.73;0.50;;;;;;;26.56;nan;99420.50;5083691;28;20071;-56
2022/09/23 02:17:40;;;;;;;0.70;0.45;;;;;;;26.55;nan;99409.69;5082110;28;20051;-58
2022/09/23 02:20:07;;;;;;;0.68;0.45;;;;;;;26.54;nan;99411.72;5084906;28;20454;-58
2022/09/23 02:22:52;;;;;;;0.70;0.57;;;;;;;26.52;nan;99414.16;5079584;28;20043;-59
2022/09/23 02:25:22;;;;;;;0.70;0.47;;;;;;;26.55;nan;99410.50;5082516;28;20088;-57
2022/09/23 02:27:55;;;;;;;0.77;0.50;;;;;;;26.56;nan;99419.72;5087336;28;20399;-56
2022/09/23 02:30:28;;;;;;;0.77;0.50;;;;;;;26.54;nan;99413.72;5082652;28;20048;-58
2022/09/23 02:33:03;;;;;;;0.57;0.43;;;;;;;26.55;nan;99415.31;5085570;28;20051;-58
2022/09/23 02:35:43;;;;;;;0.82;0.68;;;;;;;26.55;nan;99407.69;5088248;28;20051;-56
2022/09/23 02:38:30;;;;;;;0.70;0.50;;;;;;;26.55;nan;99418.13;5083555;28;20036;-56
2022/09/23 02:41:10;;;;;;;0.88;0.60;;;;;;;26.54;nan;99422.94;5081280;28;20405;-57
2022/09/23 02:44:06;;;;;;;0.77;0.60;;;;;;;26.54;nan;99411.72;5068148;28;20045;-57
2022/09/23 02:46:32;;;;;;;0.65;0.57;;;;;;;26.54;nan;99420.13;5064001;28;20447;-56
2022/09/23 02:49:10;;;;;;;0.47;0.40;;;;;;;26.54;nan;99417.31;5083386;28;20123;-57
2022/09/23 02:51:37;;;;;;;0.60;0.50;;;;;;;26.52;nan;99413.34;5081048;28;20044;-59
2022/09/23 02:54:05;;;;;;;0.60;0.50;;;;;;;26.53;nan;99426.94;5085189;28;20051;-59
2022/09/23 02:56:36;;;;;;;0.65;0.52;;;;;;;26.53;nan;99426.16;5086943;28;20036;-58
2022/09/23 02:59:04;;;;;;;0.55;0.55;;;;;;;26.51;nan;99420.97;5079903;28;20512;-59
2022/09/23 03:02:04;;;;;;;0.40;0.40;;;;;;;26.51;nan;99428.59;5076679;28;20036;-59
2022/09/23 03:04:38;;;;;;;0.77;0.60;;;;;;;26.53;nan;99428.97;5066379;28;20090;-58
2022/09/23 03:07:13;;;;;;;0.63;0.47;;;;;;;26.50;nan;99426.97;5078239;28;20074;-58
2022/09/23 03:10:03;;;;;;;0.88;0.60;;;;;;;26.50;nan;99427.75;5080980;28;20048;-58
2022/09/23 03:12:40;;;;;;;0.70;0.52;;;;;;;26.50;nan;99433.38;5089290;28;20048;-59
2022/09/23 03:15:34;;;;;;;1.10;0.63;;;;;;;26.51;nan;99422.97;5086899;28;20052;-58
2022/09/23 03:18:20;;;;;;;1.67;0.50;;;;;;;26.51;nan;99422.97;5070119;28;20135;-59
2022/09/23 03:20:51;;;;;;;0.90;0.68;;;;;;;26.49;nan;99420.56;5083284;28;20094;-57
2022/09/23 03:23:33;;;;;;;0.50;0.43;;;;;;;26.48;nan;99427.38;5091457;28;20106;-58
2022/09/23 03:26:05;;;;;;;0.60;0.50;;;;;;;26.49;nan;99420.56;5082112;28;20067;-57
2022/09/23 03:28:32;;;;;;;0.45;0.40;;;;;;;26.49;nan;99414.94;5090219;28;20048;-59
2022/09/23 03:31:00;;;;;;;0.63;0.40;;;;;;;26.48;nan;99421.78;5091553;28;20492;-57
2022/09/23 03:33:29;;;;;;;0.50;0.45;;;;;;;26.50;nan;99421.34;5089594;28;20044;-57
2022/09/23 03:38:54;;;;;;;0.77;0.57;;;;;;;26.50;nan;99416.53;5088070;28;20047;-58
2022/09/23 03:41:34;;;;;;;0.40;0.40;;;;;;;26.49;nan;99419.78;5083664;28;20074;-58
2022/09/23 03:44:00;;;;;;;0.80;0.50;;;;;;;26.50;nan;99416.53;5077574;28;20032;-56
2022/09/23 03:46:29;;;;;;;0.60;0.50;;;;;;;26.51;nan;99420.16;5063822;28;20072;-58
2022/09/23 03:49:14;;;;;;;0.50;0.43;;;;;;;26.50;nan;99424.97;5082534;28;20040;-57
2022/09/23 03:51:40;;;;;;;0.50;0.40;;;;;;;26.52;nan;99418.97;5078505;28;20048;-58
2022/09/23 03:54:05;;;;;;;0.47;0.47;;;;;;;26.51;nan;99417.38;5089449;28;20094;-58
2022/09/23 03:56:30;;;;;;;0.52;0.50;;;;;;;26.49;nan;99420.56;5085389;28;20045;-56
2022/09/23 03:58:56;;;;;;;0.50;0.50;;;;;;;26.51;nan;99426.56;5083837;28;20436;-58
2022/09/23 04:01:22;;;;;;;0.70;0.55;;;;;;;26.51;nan;99414.56;5089784;28;21893;-58
2022/09/23 04:03:47;;;;;;;0.73;0.40;;;;;;;26.48;nan;99416.16;5087022;28;20040;-58
2022/09/23 04:06:13;;;;;;;0.50;0.40;;;;;;;26.47;nan;99411.78;5082706;28;20051;-55
2022/09/23 04:08:39;;;;;;;0.68;0.50;;;;;;;26.50;nan;99421.34;5081325;28;20569;-56
2022/09/23 04:11:04;;;;;;;0.63;0.50;;;;;;;26.49;nan;99426.19;5087142;28;20097;-58
2022/09/23 04:13:30;;;;;;;0.63;0.50;;;;;;;26.50;nan;99424.16;5072670;28;20618;-58
2022/09/23 04:15:56;;;;;;;0.68;0.50;;;;;;;26.47;nan;99425.00;5086380;28;20055;-58
2022/09/23 04:18:22;;;;;;;0.63;0.50;;;;;;;26.48;nan;99432.19;5079593;28;20072;-57
2022/09/23 04:20:48;;;;;;;0.75;0.60;;;;;;;26.48;nan;99435.81;5082281;28;20098;-56
2022/09/23 04:23:14;;;;;;;0.77;0.50;;;;;;;26.49;nan;99431.00;5069626;28;20059;-58
2022/09/23 04:25:46;;;;;;;0.57;0.52;;;;;;;26.45;nan;99431.03;5075974;28;20053;-58
2022/09/23 04:28:12;;;;;;;0.43;0.40;;;;;;;26.48;nan;99433.00;5065788;28;20041;-55
2022/09/23 04:30:43;;;;;;;0.68;0.47;;;;;;;26.48;nan;99438.59;5087959;28;20077;-58
2022/09/23 04:33:12;;;;;;;0.90;0.50;;;;;;;26.47;nan;99439.03;5086543;28;20079;-56
2022/09/23 04:35:39;;;;;;;0.55;0.50;;;;;;;26.45;nan;99438.66;5078897;28;20596;-56
2022/09/23 04:38:05;;;;;;;0.65;0.50;;;;;;;26.47;nan;99437.03;5088373;28;20044;-56
2022/09/23 04:40:32;;;;;;;0.60;0.50;;;;;;;26.48;nan;99447.03;5090207;28;20143;-58
2022/09/23 04:42:57;;;;;;;0.73;0.43;;;;;;;26.45;nan;99438.66;5089734;28;20032;-58
2022/09/23 04:45:22;;;;;;;0.50;0.40;;;;;;;26.49;nan;99454.22;5083565;28;20519;-59
2022/09/23 04:47:48;;;;;;;0.65;0.45;;;;;;;26.49;nan;99453.44;5068540;28;20076;-59
2022/09/23 04:50:13;;;;;;;0.55;0.50;;;;;;;26.51;nan;99456.63;5090201;28;20051;-57
2022/09/23 04:52:39;;;;;;;0.40;0.40;;;;;;;26.51;nan;99451.81;5081057;28;20074;-57
2022/09/23 04:55:05;;;;;;;0.60;0.50;;;;;;;26.51;nan;99460.25;5081005;28;20072;-57
2022/09/23 04:57:30;;;;;;;0.77;0.50;;;;;;;26.52;nan;99464.63;5084141;28;20398;-57
2022/09/23 04:59:56;;;;;;;0.90;0.50;;;;;;;26.54;nan;99465.00;5084057;28;20553;-59
2022/09/23 05:02:22;;;;;;;0.68;0.50;;;;;;;26.54;nan;99465.00;5087181;28;20063;-59
2022/09/23 05:04:48;;;;;;;0.63;0.60;;;;;;;26.54;nan;99459.41;5087245;28;20044;-59
2022/09/23 05:07:14;;;;;;;0.77;0.50;;;;;;;26.55;nan;99460.19;5079454;28;20045;-57
2022/09/23 05:09:40;;;;;;;0.85;0.60;;;;;;;24.24;nan;99103.88;5078648;28;20579;-61
2022/09/23 05:12:08;;;;;;;1.00;0.57;;;;;;;;;;5078656;28;20060;-59
2022/09/23 05:14:33;;;;;;;47.65;2.80;;;;;;;;;;5067104;28;20103;-61
2022/09/23 05:16:59;;;;;;;19.50;1.77;;;;;;;;;;5086540;28;20044;-60
2022/09/23 05:19:24;;;;;;;17.10;1.40;;;;;;;;;;5087878;28;20766;-59
2022/09/23 05:21:49;;;;;;;11.23;1.40;;;;;;;;;;5074397;28;20059;-59
2022/09/23 05:24:15;;;;;;;18.70;1.30;;;;;;;;;;5076898;28;20404;-60
2022/09/23 05:26:40;;;;;;;14.55;1.42;;;;;;;;;;5069139;28;20037;-60
2022/09/23 05:29:08;;;;;;;13.93;1.30;;;;;;;;;;5082856;28;20107;-58
2022/09/23 05:31:33;;;;;;;18.50;1.40;;;;;;;;;;5089659;28;20048;-59
2022/09/23 05:34:03;;;;;;;13.50;1.05;;;;;;;;;;5083095;28;20045;-58
2022/09/23 05:36:29;;;;;;;17.98;1.67;;;;;;;;;;5071162;28;20052;-59
2022/09/23 05:38:57;;;;;;;15.27;1.60;;;;;;;;;;5083538;28;20050;-59
2022/09/23 05:41:23;;;;;;;13.27;1.42;;;;;;;;;;5088145;28;20040;-58
2022/09/23 05:43:52;;;;;;;8.60;0.88;;;;;;;;;;5085622;28;20040;-58
2022/09/23 05:46:21;;;;;;;9.15;0.70;;;;;;;;;;5088012;28;20577;-59
2022/09/23 05:48:47;;;;;;;9.57;1.08;;;;;;;;;;5087484;28;20576;-59
2022/09/23 05:51:17;;;;;;;5.00;0.90;;;;;;;;;;5085332;28;20143;-59
2022/09/23 05:53:45;;;;;;;7.43;1.02;;;;;;;;;;5073341;28;20040;-59
2022/09/23 05:56:16;;;;;;;4.28;0.90;;;;;;;26.53;nan;99477.44;5088177;28;20039;-59
2022/09/23 05:58:45;;;;;;;7.55;1.00;;;;;;;;;;5082115;28;20593;-60
2022/09/23 06:01:19;;;;;;;4.82;0.70;;;;;;;;;;5087684;28;20036;-58
2022/09/23 06:03:48;;;;;;;5.72;1.00;;;;;;;;;;5071889;28;20621;-59
2022/09/23 06:06:14;;;;;;;4.53;0.70;;;;;;;;;;5066052;28;20058;-58
2022/09/23 06:08:40;;;;;;;2.80;0.80;;;;;;;;;;5080727;28;20119;-58
2022/09/23 06:11:06;;;;;;;1.83;0.73;;;;;;;;;;5078207;28;20064;-59
2022/09/23 06:13:38;;;;;;;2.08;0.80;;;;;;;;;;5088323;28;20039;-58
2022/09/23 06:16:07;;;;;;;1.73;0.65;;;;;;;;;;5089141;28;20479;-58
2022/09/23 06:18:33;;;;;;;3.53;0.80;;;;;;;;;;5068217;28;20526;-58
2022/09/23 06:21:01;;;;;;;2.92;0.70;;;;;;;;;;5089209;28;20040;-58
2022/09/23 06:23:27;;;;;;;2.70;0.60;;;;;;;;;;5088152;28;20040;-59
2022/09/23 06:25:53;;;;;;;6.72;0.82;;;;;;;;;;5088791;28;20040;-59
2022/09/23 06:28:18;;;;;;;2.25;0.75;;;;;;;;;;5084989;28;20043;-59
2022/09/23 06:30:44;;;;;;;1.30;0.70;;;;;;;;;;5080518;28;20128;-60
2022/09/23 06:33:09;;;;;;;1.67;0.60;;;;;;;;;;5085260;28;20060;-60
2022/09/23 06:35:34;;;;;;;1.40;0.52;;;;;;;;;;5078795;28;20058;-59
2022/09/23 06:38:03;;;;;;;1.33;0.60;;;;;;;;;;5075589;28;20083;-60
2022/09/23 06:40:28;;;;;;;1.17;0.70;;;;;;;;;;5082566;28;20063;-57
2022/09/23 06:42:57;;;;;;;4.13;0.70;;;;;;;;;;5074679;28;20106;-60
2022/09/23 06:45:23;;;;;;;0.63;0.50;;;;;;;;;;5085148;28;20048;-58
2022/09/23 06:47:54;;;;;;;1.83;0.80;;;;;;;;;;5080656;28;20034;-59
2022/09/23 06:50:20;;;;;;;3.30;0.60;;;;;;;;;;5069986;28;20041;-59
2022/09/23 06:52:49;;;;;;;4.82;0.80;;;;;;;;;;5069173;28;20028;-59
2022/09/23 06:55:14;;;;;;;4.85;0.90;;;;;;;;;;5072725;28;20041;-59
2022/09/23 06:57:40;;;;;;;2.08;0.80;;;;;;;;;;5078678;28;20048;-57
2022/09/23 07:00:06;;;;;;;2.63;0.80;;;;;;;;;;5065624;28;20044;-57
2022/09/23 07:02:31;;;;;;;2.30;0.60;;;;;;;;;;5074169;28;20040;-58
2022/09/23 07:04:56;;;;;;;1.20;0.63;;;;;;;;;;5080185;28;20049;-57
2022/09/23 07:07:22;;;;;;;1.00;0.60;;;;;;;;;;5077764;28;20127;-58
2022/09/23 07:09:47;;;;;;;1.23;0.57;;;;;;;;;;5084345;28;20101;-56
2022/09/23 07:12:13;;;;;;;3.60;0.70;;;;;;;;;;5074628;28;20064;-59
2022/09/23 07:14:38;;;;;;;1.53;0.73;;;;;;;;;;5082165;28;20037;-57
2022/09/23 07:17:04;;;;;;;7.80;2.53;;;;;;;;;;5074341;28;20067;-58
2022/09/23 07:19:32;;;;;;;7.88;3.00;;;;;;;;;;5079383;28;20052;-61
2022/09/23 07:21:58;;;;;;;5.80;2.65;;;;;;;;;;5071311;28;20403;-59
2022/09/23 07:24:24;;;;;;;5.85;2.22;;;;;;;;;;5078091;28;20039;-58
2022/09/23 07:26:49;;;;;;;8.47;2.53;;;;;;;;;;5067317;28;20424;-57
2022/09/23 07:29:14;;;;;;;7.53;2.40;;;;;;;;;;5082444;28;20056;-59
2022/09/23 07:31:40;;;;;;;8.02;2.38;;;;;;;;;;5080299;28;20668;-58
2022/09/23 07:34:06;;;;;;;9.43;2.38;;;;;;;;;;5068351;28;20505;-58
2022/09/23 07:36:31;;;;;;;5.65;1.83;;;;;;;;;;5076152;28;20084;-59
2022/09/23 07:38:59;;;;;;;4.90;1.88;;;;;;;;;;5076178;28;20146;-58
2022/09/23 07:41:26;;;;;;;6.80;2.00;;;;;;;;;;5083437;28;20052;-60
2022/09/23 07:43:54;;;;;;;6.10;2.03;;;;;;;;;;5081817;28;20047;-62
2022/09/23 07:46:19;;;;;;;6.13;2.30;;;;;;;;;;5080413;28;20040;-59
2022/09/23 07:48:44;;;;;;;6.23;2.10;;;;;;;;;;5071371;28;20040;-59
2022/09/23 07:51:17;;;;;;;6.85;2.20;;;;;;;;;;5075552;28;20348;-61
2022/09/23 07:53:46;;;;;;;5.60;2.13;;;;;;;;;;5087856;28;20036;-61
2022/09/23 07:56:11;;;;;;;5.03;2.40;;;;;;;;;;5071490;28;20543;-57
2022/09/23 07:58:37;;;;;;;4.05;1.90;;;;;;;;;;5082635;28;20075;-56
2022/09/23 08:01:07;;;;;;;3.92;1.85;;;;;;;;;;5064684;28;20048;-57
2022/09/23 08:03:33;;;;;;;7.00;2.30;;;;;;;;;;5083227;28;20125;-57
2022/09/23 08:06:03;;;;;;;6.22;1.88;;;;;;;;;;5071406;28;20055;-57
2022/09/23 08:08:29;;;;;;;3.45;1.55;;;;;;;;;;5074104;28;20041;-58
2022/09/23 08:10:59;;;;;;;4.30;1.70;;;;;;;;;;5079145;28;20385;-58
2022/09/23 08:13:24;;;;;;;3.60;1.23;;;;;;;;;;5069040;28;20044;-58
2022/09/23 08:15:49;;;;;;;3.97;1.50;;;;;;;;;;5075495;28;20386;-58
2022/09/23 08:18:15;;;;;;;2.78;1.17;;;;;;;;;;5076430;28;20078;-59
2022/09/23 08:20:43;;;;;;;3.47;1.15;;;;;;;;;;5082338;28;20063;-59
2022/09/23 08:23:12;;;;;;;2.75;1.08;;;;;;;;;;5080650;28;20398;-58
2022/09/23 08:25:39;;;;;;;2.28;1.25;;;;;;;;;;5083161;28;20062;-58
2022/09/23 08:28:04;;;;;;;2.53;1.10;;;;;;;;;;5074399;28;20044;-58
2022/09/23 08:30:30;;;;;;;2.45;1.20;;;;;;;;;;5075450;28;20068;-59
2022/09/23 08:32:55;;;;;;;2.50;1.10;;;;;;;;;;5079556;28;20101;-59
2022/09/23 08:35:20;;;;;;;3.53;1.30;;;;;;;;;;5079458;28;20473;-58
2022/09/23 08:37:46;;;;;;;2.07;1.17;;;;;;;;;;5072887;28;20317;-60
2022/09/23 08:40:11;;;;;;;1.95;0.85;;;;;;;;;;5076566;28;20385;-58
2022/09/23 08:42:38;;;;;;;3.78;1.08;;;;;;;;;;5079787;28;20067;-58
2022/09/23 08:45:05;;;;;;;1.95;1.00;;;;;;;;;;5068261;28;20086;-58
2022/09/23 08:47:43;;;;;;;3.33;1.17;;;;;;;;;;5081379;28;20044;-58
2022/09/23 08:50:14;;;;;;;2.13;0.90;;;;;;;;;;5077998;28;20040;-59
2022/09/23 08:52:40;;;;;;;2.40;0.95;;;;;;;;;;5085173;28;20561;-57
2022/09/23 08:55:09;;;;;;;1.83;0.90;;;;;;;;;;5085438;28;20052;-58
2022/09/23 08:57:57;;;;;;;1.73;0.90;;;;;;;;;;5087652;28;20408;-57
2022/09/23 09:00:27;;;;;;;3.58;1.13;;;;;;;;;;5037193;28;20044;-57
2022/09/23 09:02:52;;;;;;;1.13;0.73;;;;;;;;;;5075263;28;20048;-58
2022/09/23 09:05:24;;;;;;;1.80;0.93;;;;;;;;;;5060931;28;20527;-58
2022/09/23 09:07:50;;;;;;;1.75;0.80;;;;;;;;;;5081062;28;20060;-58
2022/09/23 09:10:18;;;;;;;2.55;0.95;;;;;;;;;;5075040;28;20040;-58
2022/09/23 09:12:43;;;;;;;1.20;0.70;;;;;;;;;;5068950;28;20687;-60
2022/09/23 09:15:14;;;;;;;1.48;0.80;;;;;;;;;;5067402;28;20043;-60
2022/09/23 09:17:47;;;;;;;2.65;0.90;;;;;;;;;;5072975;28;20072;-58
2022/09/23 09:20:27;;;;;;;1.02;0.70;;;;;;;;;;5075798;28;20055;-58
2022/09/23 09:22:56;;;;;;;1.33;0.90;;;;;;;;;;5067005;28;20044;-58
2022/09/23 09:25:21;;;;;;;1.52;0.88;;;;;;;;;;5080449;28;20109;-58
2022/09/23 09:27:47;;;;;;;1.85;0.85;;;;;;;;;;5066453;28;20068;-59
2022/09/23 09:30:15;;;;;;;2.83;0.93;;;;;;;;;;5063647;28;20098;-58
2022/09/23 09:32:49;;;;;;;3.35;0.80;;;;;;;;;;5083011;28;20458;-59
2022/09/23 09:35:19;;;;;;;2.00;0.95;;;;;;;;;;5074461;28;20489;-59
2022/09/23 09:37:46;;;;;;;1.67;1.02;;;;;;;;;;5085395;28;20036;-59
2022/09/23 09:40:12;;;;;;;2.95;0.80;;;;;;;;;;5078174;28;20051;-59
2022/09/23 09:42:41;;;;;;;1.45;0.80;;;;;;;;;;5073901;28;20047;-59
2022/09/23 09:45:09;;;;;;;1.00;0.68;;;;;;;;;;5081961;28;20036;-59
2022/09/23 09:47:47;;;;;;;1.40;0.80;;;;;;;;;;5086295;28;20443;-59
2022/09/23 09:50:20;;;;;;;1.85;1.00;;;;;;;;;;5082069;28;20044;-59
2022/09/23 09:52:47;;;;;;;3.15;1.00;;;;;;;;;;5063906;28;20048;-59
2022/09/23 09:55:12;;;;;;;1.77;0.80;;;;;;;;;;5085876;28;20048;-59
2022/09/23 09:58:00;;;;;;;2.17;0.80;;;;;;;;;;5088447;28;20431;-58
2022/09/23 10:00:28;;;;;;;3.45;0.90;;;;;;;;;;5075023;28;20055;-59
2022/09/23 10:03:00;;;;;;;1.17;0.60;;;;;;;;;;5076743;28;20131;-59
2022/09/23 10:05:25;;;;;;;2.05;0.93;;;;;;;;;;5080268;28;20401;-59
2022/09/23 10:07:51;;;;;;;1.92;0.85;;;;;;;;;;5079050;28;20058;-59
2022/09/23 10:10:19;;;;;;;1.75;0.85;;;;;;;;;;5081948;28;20044;-59
2022/09/23 10:12:46;;;;;;;4.10;1.02;;;;;;;;;;5056452;28;20638;-64
2022/09/23 10:15:33;;;;;;;3.88;1.20;;;;;;;;;;5052288;28;21994;-60
2022/09/23 10:18:00;;;;;;;4.28;1.20;;;;;;;;;;5087202;28;20512;-59
2022/09/23 10:20:37;;;;;;;7.88;1.20;;;;;;;;;;5082345;28;20059;-59
2022/09/23 10:23:07;;;;;;;3.67;1.05;;;;;;;;;;5086779;28;20382;-59
2022/09/23 10:25:33;;;;;;;4.35;1.10;;;;;;;;;;5082441;28;20044;-61
2022/09/23 10:28:21;;;;;;;2.17;1.00;;;;;;;;;;5083306;28;20504;-59
2022/09/23 10:31:02;;;;;;;2.08;0.98;;;;;;;;;;5055482;28;20520;-59
2022/09/23 10:33:27;;;;;;;2.10;0.90;;;;;;;;;;5079556;28;20044;-59
2022/09/23 10:35:56;;;;;;;3.27;1.03;;;;;;;;;;5067597;28;20093;-59
2022/09/23 10:38:21;;;;;;;3.67;1.20;;;;;;;;;;5086292;28;20040;-59
2022/09/23 10:46:44;;;;;;;1.35;0.80;;;;;;;;;;5073175;28;20434;-59
2022/09/23 10:49:16;;;;;;;1.52;0.80;;;;;;;;;;5074166;28;20171;-59
2022/09/23 10:51:42;;;;;;;1.40;0.75;;;;;;;;;;5067736;28;20041;-59
2022/09/23 10:54:17;;;;;;;1.92;0.88;;;;;;;;;;5086550;28;20046;-59
2022/09/23 10:56:45;;;;;;;1.52;0.82;;;;;;;;;;5085845;28;20407;-59
2022/09/23 10:59:28;;;;;;;1.42;0.80;;;;;;;;;;5086642;28;20460;-59
2022/09/23 11:02:08;;;;;;;1.33;0.75;;;;;;;;;;5075534;28;20078;-59
2022/09/23 11:04:54;;;;;;;1.52;0.90;;;;;;;;;;5079178;28;20492;-59
2022/09/23 11:07:37;;;;;;;1.73;0.80;;;;;;;;;;5085833;28;20051;-59
2022/09/23 11:10:09;;;;;;;1.52;0.70;;;;;;;;;;5077499;28;20036;-59
2022/09/23 11:12:34;;;;;;;1.17;0.70;;;;;;;;;;5087298;28;20415;-59
2022/09/23 11:15:09;;;;;;;1.20;0.80;;;;;;;;;;5075863;28;20466;-59
2022/09/23 11:17:35;;;;;;;1.10;0.63;;;;;;;;;;5082802;28;20286;-59
2022/09/23 11:20:00;;;;;;;0.97;0.60;;;;;;;;;;5088819;28;20040;-59
2022/09/23 11:23:06;;;;;;;0.90;0.60;;;;;;;;;;5078966;28;20049;-58
2022/09/23 11:25:49;;;;;;;0.77;0.60;;;;;;;;;;5039501;28;20053;-59
2022/09/23 11:28:33;;;;;;;1.23;0.63;;;;;;;;;;5041035;28;20729;-58
2022/09/23 11:31:18;;;;;;;3.13;0.75;;;;;;;;;;5039564;28;20078;-59
2022/09/23 11:33:52;;;;;;;0.57;0.50;;;;;;;;;;5040118;28;20128;-59
2022/09/23 11:36:31;;;;;;;1.65;0.77;;;;;;;;;;5033244;28;20061;-59
2022/09/23 11:38:59;;;;;;;1.10;0.60;;;;;;;;;;5046306;28;20073;-59
2022/09/23 11:41:25;;;;;;;1.13;0.70;;;;;;;;;;5042568;28;20059;-59
2022/09/23 11:44:26;;;;;;;2.92;0.90;;;;;;;;;;5042899;28;20036;-58
2022/09/23 11:46:58;;;;;;;6.75;1.77;;;;;;;;;;5011579;28;20069;-58
2022/09/23 11:49:30;;;;;;;4.75;1.45;;;;;;;;;;5025125;28;20041;-59
2022/09/23 11:52:08;;;;;;;4.82;2.30;;;;;;;;;;5015654;28;20544;-58
2022/09/23 11:54:44;;;;;;;7.95;2.00;;;;;;;;;;5012860;28;20045;-58
2022/09/23 11:57:14;;;;;;;6.95;2.03;;;;;;;;;;5018508;28;20462;-59
2022/09/23 11:59:46;;;;;;;4.25;1.83;;;;;;;;;;5012528;28;20618;-59
2022/09/23 12:02:13;;;;;;;4.50;1.50;;;;;;;;;;5018836;28;20084;-59
2022/09/23 12:04:42;;;;;;;5.05;1.50;;;;;;;;;;5012326;28;20129;-58
2022/09/23 12:07:08;;;;;;;6.47;1.45;;;;;;;;;;5011837;28;20046;-58
2022/09/23 12:09:45;;;;;;;2.83;1.40;;;;;;;;;;5011769;28;20111;-59
2022/09/23 12:12:29;;;;;;;4.05;1.42;;;;;;;;;;5016396;28;20333;-59
2022/09/23 12:15:18;;;;;;;2.40;1.23;;;;;;;;;;5017237;28;20049;-58
2022/09/23 12:18:00;;;;;;;3.42;1.23;;;;;;;;;;4999942;28;20045;-58
2022/09/23 12:20:36;;;;;;;3.35;1.10;;;;;;;;;;5032439;28;20451;-58
2022/09/23 12:23:02;;;;;;;2.03;1.20;;;;;;;;;;5084645;28;20067;-58
2022/09/23 12:25:34;;;;;;;2.85;1.30;;;;;;;;;;5076171;28;20036;-58
2022/09/23 12:28:01;;;;;;;1.75;0.90;;;;;;;;;;5080456;28;20036;-58
2022/09/23 12:30:29;;;;;;;1.88;1.08;;;;;;;;;;5085788;28;20123;-58
2022/09/23 12:33:13;;;;;;;2.00;1.10;;;;;;;;;;5081434;28;20415;-58
2022/09/23 12:35:40;;;;;;;1.48;0.88;;;;;;;;;;5080705;28;20396;-59
2022/09/23 12:38:19;;;;;;;1.95;0.98;;;;;;;;;;5072702;28;20052;-58
2022/09/23 12:40:45;;;;;;;1.98;0.90;;;;;;;;;;5053312;28;20053;-59
2022/09/23 12:43:18;;;;;;;1.55;1.02;;;;;;;;;;5073143;28;20110;-59
2022/09/23 12:45:44;;;;;;;1.63;0.90;;;;;;;;;;5084175;28;20048;-59
2022/09/23 12:48:18;;;;;;;2.47;0.82;;;;;;;;;;5081388;28;20102;-58
2022/09/23 12:50:46;;;;;;;1.38;0.70;;;;;;;;;;5070965;28;20075;-58
2022/09/23 12:53:30;;;;;;;3.08;0.93;;;;;;;;;;5079853;28;20036;-58
2022/09/23 12:55:57;;;;;;;1.23;0.75;;;;;;;;;;5080080;28;20043;-57
2022/09/23 12:58:51;;;;;;;1.75;0.80;;;;;;;;;;5074667;28;20546;-59
2022/09/23 13:01:19;;;;;;;3.92;0.90;;;;;;;;;;5054150;28;20041;-59
2022/09/23 13:06:38;;;;;;;1.38;0.70;;;;;;;;;;5076933;28;20731;-59
2022/09/23 13:09:21;;;;;;;1.58;0.80;;;;;;;;;;5080444;28;20040;-57
2022/09/23 13:11:47;;;;;;;2.08;0.80;;;;;;;;;;5081886;28;20098;-58
2022/09/23 13:14:20;;;;;;;2.63;0.80;;;;;;;;;;5075264;28;20094;-58
2022/09/23 13:16:46;;;;;;;1.20;0.60;;;;;;;;;;5078902;28;20049;-58
2022/09/23 13:19:27;;;;;;;2.22;0.88;;;;;;;;;;5078810;28;20051;-59
2022/09/23 13:21:52;;;;;;;1.15;0.70;;;;;;;;;;5062437;28;20040;-58
2022/09/23 13:24:23;;;;;;;2.60;0.93;;;;;;;;;;5084914;28;20182;-59
2022/09/23 13:26:53;;;;;;;3.90;2.70;;;;;;;;;;5057648;28;20048;-59
2022/09/23 13:29:39;;;;;;;5.45;2.60;;;;;;;;;;5075154;28;20059;-59
2022/09/23 13:32:19;;;;;;;8.18;4.22;;;;;;;;;;5072772;28;20587;-59
2022/09/23 13:34:57;;;;;;;5.13;3.42;;;;;;;;;;5075005;28;20040;-59
2022/09/23 13:37:39;;;;;;;8.48;3.03;;;;;;;;;;5081291;28;20470;-59
2022/09/23 13:40:24;;;;;;;5.55;2.60;;;;;;;;;;5079758;28;20043;-59
2022/09/23 13:42:54;;;;;;;6.70;2.60;;;;;;;;;;5081952;28;20044;-58
2022/09/23 13:45:21;;;;;;;7.20;2.85;;;;;;;;;;5080209;28;20056;-58
2022/09/23 13:47:48;;;;;;;7.45;2.58;;;;;;;;;;5074119;28;20452;-59
2022/09/23 13:50:33;;;;;;;4.55;2.70;;;;;;;;;;5084970;28;20048;-59
2022/09/23 13:52:59;;;;;;;6.43;3.15;;;;;;;;;;5081301;28;20048;-59
2022/09/23 13:55:30;;;;;;;6.15;2.92;;;;;;;;;;5079406;28;20085;-59
2022/09/23 13:58:24;;;;;;;4.30;2.30;;;;;;;;;;5074233;28;20440;-59
2022/09/23 14:00:50;;;;;;;5.88;2.30;;;;;;;;;;5055049;28;20040;-59
2022/09/23 14:03:33;;;;;;;5.13;1.95;;;;;;;;;;5071001;28;20057;-59